sensor_id;sensor_type;location;lat;lon;timestamp;temperature;humidity
25024;DHT22;13033;50.936;5.334;2023-03-12T00:00:35;5.30;99.90
25024;DHT22;13033;50.936;5.334;2023-03-12T00:03:01;5.50;99.90
25024;DHT22;13033;50.936;5.334;2023-03-12T00:05:27;5.50;99.90
25024;DHT22;13033;50.936;5.334;2023-03-12T00:07:53;5.60;99.90
25024;DHT22;13033;50.936;5.334;2023-03-12T00:10:19;5.50;99.90
25024;DHT22;13033;50.936;5.334;2023-03-12T00:12:45;5.50;99.90
25024;DHT22;13033;50.936;5.334;2023-03-12T00:15:11;5.60;99.90
25024;DHT22;13033;50.936;5.334;2023-03-12T00:17:37;5.50;99.90
25024;DHT22;13033;50.936;5.334;2023-03-12T00:20:03;5.70;99.90
25024;DHT22;13033;50.936;5.334;2023-03-12T00:22:32;5.60;99.90
25024;DHT22;13033;50.936;5.334;2023-03-12T00:24:57;5.60;99.90
25024;DHT22;13033;50.936;5.334;2023-03-12T00:27:24;5.50;99.90
25024;DHT22;13033;50.936;5.334;2023-03-12T00:29:50;5.60;99.90
25024;DHT22;13033;50.936;5.334;2023-03-12T00:32:17;5.60;99.90
25024;DHT22;13033;50.936;5.334;2023-03-12T00:34:42;5.40;99.90
25024;DHT22;13033;50.936;5.334;2023-03-12T00:37:08;5.50;99.90
25024;DHT22;13033;50.936;5.334;2023-03-12T00:39:34;5.40;99.90
25024;DHT22;13033;50.936;5.334;2023-03-12T00:42:00;5.50;99.90
25024;DHT22;13033;50.936;5.334;2023-03-12T00:44:26;5.50;99.90
25024;DHT22;13033;50.936;5.334;2023-03-12T00:46:52;5.40;99.90
25024;DHT22;13033;50.936;5.334;2023-03-12T00:49:18;5.30;99.90
25024;DHT22;13033;50.936;5.334;2023-03-12T00:51:43;5.40;99.90
25024;DHT22;13033;50.936;5.334;2023-03-12T00:54:09;5.50;99.90
25024;DHT22;13033;50.936;5.334;2023-03-12T00:56:35;5.50;99.90
25024;DHT22;13033;50.936;5.334;2023-03-12T00:59:00;5.50;99.90
25024;DHT22;13033;50.936;5.334;2023-03-12T01:01:26;5.60;99.90
25024;DHT22;13033;50.936;5.334;2023-03-12T01:03:52;5.60;99.90
25024;DHT22;13033;50.936;5.334;2023-03-12T01:06:19;5.50;99.90
25024;DHT22;13033;50.936;5.334;2023-03-12T01:08:45;5.50;99.90
25024;DHT22;13033;50.936;5.334;2023-03-12T01:11:18;5.50;99.90
25024;DHT22;13033;50.936;5.334;2023-03-12T01:13:45;5.50;99.90
25024;DHT22;13033;50.936;5.334;2023-03-12T01:16:10;5.50;99.90
25024;DHT22;13033;50.936;5.334;2023-03-12T01:18:36;5.30;99.90
25024;DHT22;13033;50.936;5.334;2023-03-12T01:21:02;5.30;99.90
25024;DHT22;13033;50.936;5.334;2023-03-12T01:23:28;5.50;99.90
25024;DHT22;13033;50.936;5.334;2023-03-12T01:25:54;5.70;99.90
25024;DHT22;13033;50.936;5.334;2023-03-12T01:28:23;5.60;99.90
25024;DHT22;13033;50.936;5.334;2023-03-12T01:30:49;5.50;99.90
25024;DHT22;13033;50.936;5.334;2023-03-12T01:33:15;5.50;99.90
25024;DHT22;13033;50.936;5.334;2023-03-12T01:35:43;5.50;99.90
25024;DHT22;13033;50.936;5.334;2023-03-12T01:38:13;5.50;99.90
25024;DHT22;13033;50.936;5.334;2023-03-12T01:40:41;5.60;99.90
25024;DHT22;13033;50.936;5.334;2023-03-12T01:48:49;5.80;99.90
25024;DHT22;13033;50.936;5.334;2023-03-12T01:51:16;5.80;99.90
25024;DHT22;13033;50.936;5.334;2023-03-12T01:53:46;5.80;99.90
25024;DHT22;13033;50.936;5.334;2023-03-12T01:56:15;5.60;99.90
25024;DHT22;13033;50.936;5.334;2023-03-12T01:58:46;5.50;99.90
25024;DHT22;13033;50.936;5.334;2023-03-12T02:01:14;5.70;99.90
25024;DHT22;13033;50.936;5.334;2023-03-12T02:03:40;5.50;99.90
25024;DHT22;13033;50.936;5.334;2023-03-12T02:06:11;5.50;99.90
25024;DHT22;13033;50.936;5.334;2023-03-12T02:08:41;5.20;99.90
25024;DHT22;13033;50.936;5.334;2023-03-12T02:11:09;5.10;99.90
25024;DHT22;13033;50.936;5.334;2023-03-12T02:13:35;5.20;99.90
25024;DHT22;13033;50.936;5.334;2023-03-12T02:16:01;5.30;99.90
25024;DHT22;13033;50.936;5.334;2023-03-12T02:18:27;5.20;99.90
25024;DHT22;13033;50.936;5.334;2023-03-12T02:21:34;5.20;99.90
25024;DHT22;13033;50.936;5.334;2023-03-12T02:26:25;5.30;99.90
25024;DHT22;13033;50.936;5.334;2023-03-12T02:28:53;5.30;99.90
25024;DHT22;13033;50.936;5.334;2023-03-12T02:31:22;5.40;99.90
25024;DHT22;13033;50.936;5.334;2023-03-12T02:33:48;5.40;99.90
25024;DHT22;13033;50.936;5.334;2023-03-12T02:36:14;5.20;99.90
25024;DHT22;13033;50.936;5.334;2023-03-12T02:38:48;5.20;99.90
25024;DHT22;13033;50.936;5.334;2023-03-12T02:43:49;5.30;99.90
25024;DHT22;13033;50.936;5.334;2023-03-12T02:46:16;5.40;99.90
25024;DHT22;13033;50.936;5.334;2023-03-12T02:48:43;5.20;99.90
25024;DHT22;13033;50.936;5.334;2023-03-12T02:51:09;5.30;99.90
25024;DHT22;13033;50.936;5.334;2023-03-12T02:53:35;5.30;99.90
25024;DHT22;13033;50.936;5.334;2023-03-12T02:56:00;5.30;99.90
25024;DHT22;13033;50.936;5.334;2023-03-12T02:58:26;5.20;99.90
25024;DHT22;13033;50.936;5.334;2023-03-12T03:00:52;5.30;99.90
25024;DHT22;13033;50.936;5.334;2023-03-12T03:03:17;5.40;99.90
25024;DHT22;13033;50.936;5.334;2023-03-12T03:05:43;5.40;99.90
25024;DHT22;13033;50.936;5.334;2023-03-12T03:08:09;5.40;99.90
25024;DHT22;13033;50.936;5.334;2023-03-12T03:10:34;5.40;99.90
25024;DHT22;13033;50.936;5.334;2023-03-12T03:13:00;5.40;40.60
25024;DHT22;13033;50.936;5.334;2023-03-12T03:15:26;5.30;47.30
25024;DHT22;13033;50.936;5.334;2023-03-12T03:17:51;5.30;48.50
25024;DHT22;13033;50.936;5.334;2023-03-12T03:20:17;5.20;52.70
25024;DHT22;13033;50.936;5.334;2023-03-12T03:22:44;5.20;55.80
25024;DHT22;13033;50.936;5.334;2023-03-12T03:25:10;5.20;58.40
25024;DHT22;13033;50.936;5.334;2023-03-12T03:27:36;5.20;59.70
25024;DHT22;13033;50.936;5.334;2023-03-12T03:30:02;5.20;62.90
25024;DHT22;13033;50.936;5.334;2023-03-12T03:32:28;5.30;67.40
25024;DHT22;13033;50.936;5.334;2023-03-12T03:34:54;5.10;74.20
25024;DHT22;13033;50.936;5.334;2023-03-12T03:37:19;5.10;83.90
25024;DHT22;13033;50.936;5.334;2023-03-12T03:39:45;5.00;99.90
25024;DHT22;13033;50.936;5.334;2023-03-12T03:42:10;5.10;99.90
25024;DHT22;13033;50.936;5.334;2023-03-12T03:44:36;5.20;99.90
25024;DHT22;13033;50.936;5.334;2023-03-12T03:47:02;5.30;99.90
25024;DHT22;13033;50.936;5.334;2023-03-12T03:49:28;5.20;99.90
25024;DHT22;13033;50.936;5.334;2023-03-12T03:51:53;5.20;99.90
25024;DHT22;13033;50.936;5.334;2023-03-12T03:54:19;5.20;99.90
25024;DHT22;13033;50.936;5.334;2023-03-12T03:56:45;5.10;99.90
25024;DHT22;13033;50.936;5.334;2023-03-12T03:59:12;5.10;99.90
25024;DHT22;13033;50.936;5.334;2023-03-12T04:01:39;5.10;99.90
25024;DHT22;13033;50.936;5.334;2023-03-12T04:04:04;5.20;99.90
25024;DHT22;13033;50.936;5.334;2023-03-12T04:06:31;5.10;99.90
25024;DHT22;13033;50.936;5.334;2023-03-12T04:08:57;5.10;99.90
25024;DHT22;13033;50.936;5.334;2023-03-12T04:11:23;5.10;99.90
25024;DHT22;13033;50.936;5.334;2023-03-12T04:13:49;5.00;99.90
25024;DHT22;13033;50.936;5.334;2023-03-12T04:16:15;5.10;99.90
25024;DHT22;13033;50.936;5.334;2023-03-12T04:18:41;5.20;99.90
25024;DHT22;13033;50.936;5.334;2023-03-12T04:21:09;5.40;99.90
25024;DHT22;13033;50.936;5.334;2023-03-12T04:23:35;5.30;99.90
25024;DHT22;13033;50.936;5.334;2023-03-12T04:26:01;5.30;99.90
25024;DHT22;13033;50.936;5.334;2023-03-12T04:28:27;5.30;99.90
25024;DHT22;13033;50.936;5.334;2023-03-12T04:30:57;5.40;99.90
25024;DHT22;13033;50.936;5.334;2023-03-12T04:33:30;5.30;99.90
25024;DHT22;13033;50.936;5.334;2023-03-12T04:35:56;5.40;99.90
25024;DHT22;13033;50.936;5.334;2023-03-12T04:38:24;5.40;99.90
25024;DHT22;13033;50.936;5.334;2023-03-12T04:41:00;5.50;99.90
25024;DHT22;13033;50.936;5.334;2023-03-12T04:43:27;5.50;99.90
25024;DHT22;13033;50.936;5.334;2023-03-12T04:45:54;5.60;99.90
25024;DHT22;13033;50.936;5.334;2023-03-12T04:48:20;5.80;99.90
25024;DHT22;13033;50.936;5.334;2023-03-12T04:50:45;5.70;99.90
25024;DHT22;13033;50.936;5.334;2023-03-12T04:53:11;5.60;99.90
25024;DHT22;13033;50.936;5.334;2023-03-12T04:55:37;5.40;99.90
25024;DHT22;13033;50.936;5.334;2023-03-12T04:58:03;5.50;99.90
25024;DHT22;13033;50.936;5.334;2023-03-12T05:00:28;5.40;99.90
25024;DHT22;13033;50.936;5.334;2023-03-12T05:02:54;5.40;99.90
25024;DHT22;13033;50.936;5.334;2023-03-12T05:05:20;5.40;99.90
25024;DHT22;13033;50.936;5.334;2023-03-12T05:07:45;5.40;99.90
25024;DHT22;13033;50.936;5.334;2023-03-12T05:10:11;5.40;99.90
25024;DHT22;13033;50.936;5.334;2023-03-12T05:12:37;5.40;99.90
25024;DHT22;13033;50.936;5.334;2023-03-12T05:15:03;5.20;99.90
25024;DHT22;13033;50.936;5.334;2023-03-12T05:17:29;5.30;99.90
25024;DHT22;13033;50.936;5.334;2023-03-12T05:19:54;5.30;99.90
25024;DHT22;13033;50.936;5.334;2023-03-12T05:22:20;5.40;99.90
25024;DHT22;13033;50.936;5.334;2023-03-12T05:24:45;5.60;99.90
25024;DHT22;13033;50.936;5.334;2023-03-12T05:27:11;5.90;99.90
25024;DHT22;13033;50.936;5.334;2023-03-12T05:29:37;5.90;99.90
25024;DHT22;13033;50.936;5.334;2023-03-12T05:32:03;5.90;99.90
25024;DHT22;13033;50.936;5.334;2023-03-12T05:34:30;5.80;99.90
25024;DHT22;13033;50.936;5.334;2023-03-12T05:36:56;5.80;99.90
25024;DHT22;13033;50.936;5.334;2023-03-12T05:39:23;5.80;99.90
25024;DHT22;13033;50.936;5.334;2023-03-12T05:41:49;5.80;99.90
25024;DHT22;13033;50.936;5.334;2023-03-12T05:44:14;5.60;99.90
25024;DHT22;13033;50.936;5.334;2023-03-12T05:46:41;5.60;99.90
25024;DHT22;13033;50.936;5.334;2023-03-12T05:49:08;5.60;99.90
25024;DHT22;13033;50.936;5.334;2023-03-12T05:51:34;5.70;99.90
25024;DHT22;13033;50.936;5.334;2023-03-12T05:54:00;5.60;99.90
25024;DHT22;13033;50.936;5.334;2023-03-12T05:56:25;5.40;99.90
25024;DHT22;13033;50.936;5.334;2023-03-12T05:58:51;5.50;99.90
25024;DHT22;13033;50.936;5.334;2023-03-12T06:01:21;5.50;99.90
25024;DHT22;13033;50.936;5.334;2023-03-12T06:03:46;5.50;99.90
25024;DHT22;13033;50.936;5.334;2023-03-12T06:06:12;5.60;99.90
25024;DHT22;13033;50.936;5.334;2023-03-12T06:08:39;5.60;99.90
25024;DHT22;13033;50.936;5.334;2023-03-12T06:11:05;5.70;99.90
25024;DHT22;13033;50.936;5.334;2023-03-12T06:13:31;5.60;99.90
25024;DHT22;13033;50.936;5.334;2023-03-12T06:16:19;5.70;99.90
25024;DHT22;13033;50.936;5.334;2023-03-12T06:18:45;5.80;99.90
25024;DHT22;13033;50.936;5.334;2023-03-12T06:23:39;5.80;99.90
25024;DHT22;13033;50.936;5.334;2023-03-12T06:26:05;5.90;99.90
25024;DHT22;13033;50.936;5.334;2023-03-12T06:28:31;5.90;99.90
25024;DHT22;13033;50.936;5.334;2023-03-12T06:30:57;5.90;99.90
25024;DHT22;13033;50.936;5.334;2023-03-12T06:33:23;6.00;99.90
25024;DHT22;13033;50.936;5.334;2023-03-12T06:35:53;6.10;99.90
25024;DHT22;13033;50.936;5.334;2023-03-12T06:38:18;6.20;99.90
25024;DHT22;13033;50.936;5.334;2023-03-12T06:40:56;6.10;99.90
25024;DHT22;13033;50.936;5.334;2023-03-12T06:43:22;6.10;99.90
25024;DHT22;13033;50.936;5.334;2023-03-12T06:45:48;6.10;99.90
25024;DHT22;13033;50.936;5.334;2023-03-12T06:48:14;6.20;99.90
25024;DHT22;13033;50.936;5.334;2023-03-12T06:50:39;6.10;99.90
25024;DHT22;13033;50.936;5.334;2023-03-12T06:53:05;6.20;99.90
25024;DHT22;13033;50.936;5.334;2023-03-12T06:55:30;6.40;99.90
25024;DHT22;13033;50.936;5.334;2023-03-12T06:57:56;6.50;99.90
25024;DHT22;13033;50.936;5.334;2023-03-12T07:00:22;6.50;99.90
25024;DHT22;13033;50.936;5.334;2023-03-12T07:02:47;6.60;99.90
25024;DHT22;13033;50.936;5.334;2023-03-12T07:05:13;6.50;99.90
25024;DHT22;13033;50.936;5.334;2023-03-12T07:07:39;6.60;99.90
25024;DHT22;13033;50.936;5.334;2023-03-12T07:10:05;6.50;99.90
25024;DHT22;13033;50.936;5.334;2023-03-12T07:12:31;6.60;99.90
25024;DHT22;13033;50.936;5.334;2023-03-12T07:14:57;6.50;99.90
25024;DHT22;13033;50.936;5.334;2023-03-12T07:17:23;6.40;99.90
25024;DHT22;13033;50.936;5.334;2023-03-12T07:19:50;6.50;99.90
25024;DHT22;13033;50.936;5.334;2023-03-12T07:22:16;6.70;99.90
25024;DHT22;13033;50.936;5.334;2023-03-12T07:24:42;6.70;99.90
25024;DHT22;13033;50.936;5.334;2023-03-12T07:27:07;6.70;99.90
25024;DHT22;13033;50.936;5.334;2023-03-12T07:29:33;6.70;99.90
25024;DHT22;13033;50.936;5.334;2023-03-12T07:31:59;6.60;99.90
25024;DHT22;13033;50.936;5.334;2023-03-12T07:34:25;6.60;99.90
25024;DHT22;13033;50.936;5.334;2023-03-12T07:36:50;6.80;99.90
25024;DHT22;13033;50.936;5.334;2023-03-12T07:39:16;6.80;99.90
25024;DHT22;13033;50.936;5.334;2023-03-12T07:41:43;7.00;99.90
25024;DHT22;13033;50.936;5.334;2023-03-12T07:44:09;7.00;99.90
25024;DHT22;13033;50.936;5.334;2023-03-12T07:46:35;7.10;99.90
25024;DHT22;13033;50.936;5.334;2023-03-12T07:49:00;7.10;99.90
25024;DHT22;13033;50.936;5.334;2023-03-12T07:51:26;7.20;99.90
25024;DHT22;13033;50.936;5.334;2023-03-12T07:53:52;7.40;99.90
25024;DHT22;13033;50.936;5.334;2023-03-12T07:56:18;7.50;99.90
25024;DHT22;13033;50.936;5.334;2023-03-12T07:58:43;7.70;99.90
25024;DHT22;13033;50.936;5.334;2023-03-12T08:01:09;7.80;99.90
25024;DHT22;13033;50.936;5.334;2023-03-12T08:03:35;7.80;99.90
25024;DHT22;13033;50.936;5.334;2023-03-12T08:06:03;7.70;99.90
25024;DHT22;13033;50.936;5.334;2023-03-12T08:08:30;7.70;99.90
25024;DHT22;13033;50.936;5.334;2023-03-12T08:10:56;7.80;99.90
25024;DHT22;13033;50.936;5.334;2023-03-12T08:13:22;7.90;99.90
25024;DHT22;13033;50.936;5.334;2023-03-12T08:15:52;8.00;99.90
25024;DHT22;13033;50.936;5.334;2023-03-12T08:18:18;7.90;99.90
25024;DHT22;13033;50.936;5.334;2023-03-12T08:20:45;8.00;99.90
25024;DHT22;13033;50.936;5.334;2023-03-12T08:23:10;7.90;99.90
25024;DHT22;13033;50.936;5.334;2023-03-12T08:25:36;8.10;99.90
25024;DHT22;13033;50.936;5.334;2023-03-12T08:28:03;8.30;99.90
25024;DHT22;13033;50.936;5.334;2023-03-12T08:30:29;8.30;99.90
25024;DHT22;13033;50.936;5.334;2023-03-12T08:32:55;8.30;99.90
25024;DHT22;13033;50.936;5.334;2023-03-12T08:35:21;8.40;99.90
25024;DHT22;13033;50.936;5.334;2023-03-12T08:37:46;8.50;99.90
25024;DHT22;13033;50.936;5.334;2023-03-12T08:40:12;8.50;99.90
25024;DHT22;13033;50.936;5.334;2023-03-12T08:42:42;8.60;99.90
25024;DHT22;13033;50.936;5.334;2023-03-12T08:45:10;8.70;99.90
25024;DHT22;13033;50.936;5.334;2023-03-12T08:47:36;8.60;99.90
25024;DHT22;13033;50.936;5.334;2023-03-12T08:50:04;8.70;99.90
25024;DHT22;13033;50.936;5.334;2023-03-12T08:52:30;8.90;99.90
25024;DHT22;13033;50.936;5.334;2023-03-12T08:54:56;8.90;99.90
25024;DHT22;13033;50.936;5.334;2023-03-12T08:57:22;9.00;99.90
25024;DHT22;13033;50.936;5.334;2023-03-12T08:59:47;8.90;99.90
25024;DHT22;13033;50.936;5.334;2023-03-12T09:02:13;8.90;99.90
25024;DHT22;13033;50.936;5.334;2023-03-12T09:04:39;8.80;99.90
25024;DHT22;13033;50.936;5.334;2023-03-12T09:07:05;8.90;99.90
25024;DHT22;13033;50.936;5.334;2023-03-12T09:09:31;8.90;99.90
25024;DHT22;13033;50.936;5.334;2023-03-12T09:11:56;9.00;99.90
25024;DHT22;13033;50.936;5.334;2023-03-12T09:14:22;9.10;99.90
25024;DHT22;13033;50.936;5.334;2023-03-12T09:16:48;9.10;99.90
25024;DHT22;13033;50.936;5.334;2023-03-12T09:19:14;9.20;99.90
25024;DHT22;13033;50.936;5.334;2023-03-12T09:21:40;9.30;99.90
25024;DHT22;13033;50.936;5.334;2023-03-12T09:24:06;9.40;99.90
25024;DHT22;13033;50.936;5.334;2023-03-12T09:26:32;9.40;99.90
25024;DHT22;13033;50.936;5.334;2023-03-12T09:28:58;9.40;99.90
25024;DHT22;13033;50.936;5.334;2023-03-12T09:31:24;9.50;99.90
25024;DHT22;13033;50.936;5.334;2023-03-12T09:33:51;9.60;99.90
25024;DHT22;13033;50.936;5.334;2023-03-12T09:36:16;9.60;99.90
25024;DHT22;13033;50.936;5.334;2023-03-12T09:38:42;9.70;99.90
25024;DHT22;13033;50.936;5.334;2023-03-12T09:41:18;9.70;99.90
25024;DHT22;13033;50.936;5.334;2023-03-12T09:43:56;9.80;99.90
25024;DHT22;13033;50.936;5.334;2023-03-12T09:46:33;9.80;99.90
25024;DHT22;13033;50.936;5.334;2023-03-12T09:49:02;9.70;99.90
25024;DHT22;13033;50.936;5.334;2023-03-12T09:51:39;9.80;99.90
25024;DHT22;13033;50.936;5.334;2023-03-12T09:54:11;9.80;99.90
25024;DHT22;13033;50.936;5.334;2023-03-12T09:56:39;9.80;99.90
25024;DHT22;13033;50.936;5.334;2023-03-12T09:59:10;10.00;99.90
25024;DHT22;13033;50.936;5.334;2023-03-12T10:04:40;10.40;99.90
25024;DHT22;13033;50.936;5.334;2023-03-12T10:07:11;10.60;99.90
25024;DHT22;13033;50.936;5.334;2023-03-12T10:12:43;10.70;99.90
25024;DHT22;13033;50.936;5.334;2023-03-12T10:15:35;10.90;99.90
25024;DHT22;13033;50.936;5.334;2023-03-12T10:21:02;11.20;99.90
25024;DHT22;13033;50.936;5.334;2023-03-12T10:26:15;10.90;99.90
25024;DHT22;13033;50.936;5.334;2023-03-12T10:28:48;11.00;99.90
25024;DHT22;13033;50.936;5.334;2023-03-12T10:31:26;11.10;99.90
25024;DHT22;13033;50.936;5.334;2023-03-12T10:33:57;11.20;99.90
25024;DHT22;13033;50.936;5.334;2023-03-12T10:36:37;11.20;99.90
25024;DHT22;13033;50.936;5.334;2023-03-12T10:39:15;11.40;99.90
25024;DHT22;13033;50.936;5.334;2023-03-12T10:41:46;11.60;99.90
25024;DHT22;13033;50.936;5.334;2023-03-12T10:44:23;11.60;99.90
25024;DHT22;13033;50.936;5.334;2023-03-12T10:47:24;11.80;99.90
25024;DHT22;13033;50.936;5.334;2023-03-12T10:49:52;11.90;99.90
25024;DHT22;13033;50.936;5.334;2023-03-12T10:52:20;12.30;99.90
25024;DHT22;13033;50.936;5.334;2023-03-12T10:54:51;12.60;99.90
25024;DHT22;13033;50.936;5.334;2023-03-12T10:57:17;12.80;99.90
25024;DHT22;13033;50.936;5.334;2023-03-12T10:59:45;12.90;99.90
25024;DHT22;13033;50.936;5.334;2023-03-12T11:02:29;12.80;99.90
25024;DHT22;13033;50.936;5.334;2023-03-12T11:04:55;12.70;99.90
25024;DHT22;13033;50.936;5.334;2023-03-12T11:07:33;12.80;99.90
25024;DHT22;13033;50.936;5.334;2023-03-12T11:12:32;12.80;99.90
25024;DHT22;13033;50.936;5.334;2023-03-12T11:15:36;12.60;99.90
25024;DHT22;13033;50.936;5.334;2023-03-12T11:18:25;12.50;99.90
25024;DHT22;13033;50.936;5.334;2023-03-12T11:20:57;12.60;99.90
25024;DHT22;13033;50.936;5.334;2023-03-12T11:23:38;12.70;99.90
25024;DHT22;13033;50.936;5.334;2023-03-12T11:26:11;12.70;99.90
25024;DHT22;13033;50.936;5.334;2023-03-12T11:28:41;12.70;99.90
25024;DHT22;13033;50.936;5.334;2023-03-12T11:31:14;12.70;99.90
25024;DHT22;13033;50.936;5.334;2023-03-12T11:33:41;12.80;99.90
25024;DHT22;13033;50.936;5.334;2023-03-12T11:51:30;13.10;99.90
25024;DHT22;13033;50.936;5.334;2023-03-12T11:56:50;13.30;99.90
25024;DHT22;13033;50.936;5.334;2023-03-12T12:05:31;13.30;99.90
25024;DHT22;13033;50.936;5.334;2023-03-12T12:13:40;13.00;99.90
25024;DHT22;13033;50.936;5.334;2023-03-12T12:35:39;13.50;99.90
25024;DHT22;13033;50.936;5.334;2023-03-12T12:41:18;13.70;99.90
25024;DHT22;13033;50.936;5.334;2023-03-12T12:43:49;13.50;99.90
25024;DHT22;13033;50.936;5.334;2023-03-12T12:46:25;13.40;99.90
25024;DHT22;13033;50.936;5.334;2023-03-12T12:49:05;13.30;99.90
25024;DHT22;13033;50.936;5.334;2023-03-12T12:51:44;13.40;99.90
25024;DHT22;13033;50.936;5.334;2023-03-12T12:59:31;13.30;99.90
25024;DHT22;13033;50.936;5.334;2023-03-12T13:02:02;13.30;99.90
25024;DHT22;13033;50.936;5.334;2023-03-12T13:04:32;13.30;99.90
25024;DHT22;13033;50.936;5.334;2023-03-12T13:09:43;13.20;99.90
25024;DHT22;13033;50.936;5.334;2023-03-12T13:14:56;13.20;99.90
25024;DHT22;13033;50.936;5.334;2023-03-12T13:20:12;13.30;99.90
25024;DHT22;13033;50.936;5.334;2023-03-12T13:28:35;13.60;99.90
25024;DHT22;13033;50.936;5.334;2023-03-12T13:33:47;13.50;99.90
25024;DHT22;13033;50.936;5.334;2023-03-12T13:41:46;13.70;99.90
25024;DHT22;13033;50.936;5.334;2023-03-12T13:54:45;13.50;99.90
25024;DHT22;13033;50.936;5.334;2023-03-12T13:59:50;13.60;99.90
25024;DHT22;13033;50.936;5.334;2023-03-12T14:02:37;13.40;99.90
25024;DHT22;13033;50.936;5.334;2023-03-12T14:05:08;13.50;99.90
25024;DHT22;13033;50.936;5.334;2023-03-12T14:10:31;13.60;99.90
25024;DHT22;13033;50.936;5.334;2023-03-12T14:13:19;13.40;99.90
25024;DHT22;13033;50.936;5.334;2023-03-12T14:16:15;13.30;99.90
25024;DHT22;13033;50.936;5.334;2023-03-12T14:18:43;13.30;99.90
25024;DHT22;13033;50.936;5.334;2023-03-12T14:21:13;13.20;99.90
25024;DHT22;13033;50.936;5.334;2023-03-12T14:23:45;13.20;99.90
25024;DHT22;13033;50.936;5.334;2023-03-12T14:26:24;13.20;99.90
25024;DHT22;13033;50.936;5.334;2023-03-12T14:29:08;13.30;99.90
25024;DHT22;13033;50.936;5.334;2023-03-12T14:31:34;13.30;99.90
25024;DHT22;13033;50.936;5.334;2023-03-12T14:34:21;13.20;99.90
25024;DHT22;13033;50.936;5.334;2023-03-12T14:37:04;13.00;99.90
25024;DHT22;13033;50.936;5.334;2023-03-12T14:42:10;12.90;99.90
25024;DHT22;13033;50.936;5.334;2023-03-12T14:44:59;12.90;99.90
25024;DHT22;13033;50.936;5.334;2023-03-12T14:47:26;13.00;99.90
25024;DHT22;13033;50.936;5.334;2023-03-12T14:49:54;12.90;99.90
25024;DHT22;13033;50.936;5.334;2023-03-12T14:52:27;13.00;99.90
25024;DHT22;13033;50.936;5.334;2023-03-12T14:55:01;13.00;99.90
25024;DHT22;13033;50.936;5.334;2023-03-12T14:57:27;13.00;99.90
25024;DHT22;13033;50.936;5.334;2023-03-12T14:59:58;13.00;99.90
25024;DHT22;13033;50.936;5.334;2023-03-12T15:02:25;13.10;99.90
25024;DHT22;13033;50.936;5.334;2023-03-12T15:04:54;13.00;99.90
25024;DHT22;13033;50.936;5.334;2023-03-12T15:07:32;13.00;99.90
25024;DHT22;13033;50.936;5.334;2023-03-12T15:09:59;13.10;99.90
25024;DHT22;13033;50.936;5.334;2023-03-12T15:12:33;13.00;99.90
25024;DHT22;13033;50.936;5.334;2023-03-12T15:15:21;13.10;99.90
25024;DHT22;13033;50.936;5.334;2023-03-12T15:17:47;13.20;99.90
25024;DHT22;13033;50.936;5.334;2023-03-12T15:20:14;13.20;99.90
25024;DHT22;13033;50.936;5.334;2023-03-12T15:22:40;13.30;99.90
25024;DHT22;13033;50.936;5.334;2023-03-12T15:25:24;13.30;99.90
25024;DHT22;13033;50.936;5.334;2023-03-12T15:30:32;13.10;99.90
25024;DHT22;13033;50.936;5.334;2023-03-12T15:36:02;13.20;99.90
25024;DHT22;13033;50.936;5.334;2023-03-12T15:38:29;13.20;99.90
25024;DHT22;13033;50.936;5.334;2023-03-12T15:40:59;13.10;99.90
25024;DHT22;13033;50.936;5.334;2023-03-12T15:43:26;13.20;99.90
25024;DHT22;13033;50.936;5.334;2023-03-12T15:46:01;13.20;99.90
25024;DHT22;13033;50.936;5.334;2023-03-12T15:48:38;13.10;99.90
25024;DHT22;13033;50.936;5.334;2023-03-12T15:54:04;13.30;99.90
25024;DHT22;13033;50.936;5.334;2023-03-12T15:56:32;13.40;99.90
25024;DHT22;13033;50.936;5.334;2023-03-12T16:04:24;13.30;99.90
25024;DHT22;13033;50.936;5.334;2023-03-12T16:06:51;13.20;99.90
25024;DHT22;13033;50.936;5.334;2023-03-12T16:09:25;13.20;99.90
25024;DHT22;13033;50.936;5.334;2023-03-12T16:11:53;13.40;99.90
25024;DHT22;13033;50.936;5.334;2023-03-12T16:14:21;13.40;99.90
25024;DHT22;13033;50.936;5.334;2023-03-12T16:16:47;13.40;99.90
25024;DHT22;13033;50.936;5.334;2023-03-12T16:19:15;13.20;99.90
25024;DHT22;13033;50.936;5.334;2023-03-12T16:21:42;13.20;99.90
25024;DHT22;13033;50.936;5.334;2023-03-12T16:24:08;13.10;99.90
25024;DHT22;13033;50.936;5.334;2023-03-12T16:26:37;13.10;99.90
25024;DHT22;13033;50.936;5.334;2023-03-12T16:29:03;13.20;99.90
25024;DHT22;13033;50.936;5.334;2023-03-12T16:31:29;13.10;99.90
25024;DHT22;13033;50.936;5.334;2023-03-12T16:33:54;13.20;99.90
25024;DHT22;13033;50.936;5.334;2023-03-12T16:36:20;13.10;99.90
25024;DHT22;13033;50.936;5.334;2023-03-12T16:38:46;13.10;99.90
25024;DHT22;13033;50.936;5.334;2023-03-12T16:41:15;13.10;99.90
25024;DHT22;13033;50.936;5.334;2023-03-12T16:43:41;13.10;99.90
25024;DHT22;13033;50.936;5.334;2023-03-12T16:46:14;13.10;99.90
25024;DHT22;13033;50.936;5.334;2023-03-12T16:48:40;13.20;99.90
25024;DHT22;13033;50.936;5.334;2023-03-12T16:51:13;13.20;99.90
25024;DHT22;13033;50.936;5.334;2023-03-12T16:53:39;13.20;99.90
25024;DHT22;13033;50.936;5.334;2023-03-12T16:56:04;13.10;99.90
25024;DHT22;13033;50.936;5.334;2023-03-12T16:58:31;13.10;99.90
25024;DHT22;13033;50.936;5.334;2023-03-12T17:00:57;13.10;99.90
25024;DHT22;13033;50.936;5.334;2023-03-12T17:03:35;13.00;99.90
25024;DHT22;13033;50.936;5.334;2023-03-12T17:06:00;13.00;99.90
25024;DHT22;13033;50.936;5.334;2023-03-12T17:08:26;13.00;99.90
25024;DHT22;13033;50.936;5.334;2023-03-12T17:10:54;12.90;99.90
25024;DHT22;13033;50.936;5.334;2023-03-12T17:13:24;12.80;99.90
25024;DHT22;13033;50.936;5.334;2023-03-12T17:15:51;12.80;99.90
25024;DHT22;13033;50.936;5.334;2023-03-12T17:18:17;12.70;99.90
25024;DHT22;13033;50.936;5.334;2023-03-12T17:20:44;12.90;99.90
25024;DHT22;13033;50.936;5.334;2023-03-12T17:23:10;12.90;99.90
25024;DHT22;13033;50.936;5.334;2023-03-12T17:25:41;12.90;99.90
25024;DHT22;13033;50.936;5.334;2023-03-12T17:28:07;12.90;99.90
25024;DHT22;13033;50.936;5.334;2023-03-12T17:30:35;12.80;99.90
25024;DHT22;13033;50.936;5.334;2023-03-12T17:33:06;12.70;99.90
25024;DHT22;13033;50.936;5.334;2023-03-12T17:35:32;12.80;99.90
25024;DHT22;13033;50.936;5.334;2023-03-12T17:37:58;12.70;99.90
25024;DHT22;13033;50.936;5.334;2023-03-12T17:40:24;12.80;99.90
25024;DHT22;13033;50.936;5.334;2023-03-12T17:42:51;12.80;99.90
25024;DHT22;13033;50.936;5.334;2023-03-12T17:45:16;12.90;99.90
25024;DHT22;13033;50.936;5.334;2023-03-12T17:47:42;12.90;99.90
25024;DHT22;13033;50.936;5.334;2023-03-12T17:50:09;12.80;99.90
25024;DHT22;13033;50.936;5.334;2023-03-12T17:52:35;12.80;99.90
25024;DHT22;13033;50.936;5.334;2023-03-12T17:55:00;12.80;99.90
25024;DHT22;13033;50.936;5.334;2023-03-12T17:57:26;12.60;99.90
25024;DHT22;13033;50.936;5.334;2023-03-12T17:59:52;12.60;99.90
25024;DHT22;13033;50.936;5.334;2023-03-12T18:02:18;12.60;99.90
25024;DHT22;13033;50.936;5.334;2023-03-12T18:04:44;12.60;99.90
25024;DHT22;13033;50.936;5.334;2023-03-12T18:07:09;12.60;99.90